sensor_id;sensor_type;location;lat;lon;timestamp;temperature;humidity
5735;DHT22;2892;47.592;7.688;2024-03-02T00:00:51;5.50;99.90
5735;DHT22;2892;47.592;7.688;2024-03-02T00:03:17;5.60;99.90
5735;DHT22;2892;47.592;7.688;2024-03-02T00:05:43;5.60;99.90
5735;DHT22;2892;47.592;7.688;2024-03-02T00:08:09;5.60;99.90
5735;DHT22;2892;47.592;7.688;2024-03-02T00:10:38;5.60;99.90
5735;DHT22;2892;47.592;7.688;2024-03-02T00:13:03;5.60;99.90
5735;DHT22;2892;47.592;7.688;2024-03-02T00:18:21;5.60;99.90
5735;DHT22;2892;47.592;7.688;2024-03-02T00:20:47;5.50;99.90
5735;DHT22;2892;47.592;7.688;2024-03-02T00:23:15;5.50;99.90
5735;DHT22;2892;47.592;7.688;2024-03-02T00:25:44;5.50;99.90
5735;DHT22;2892;47.592;7.688;2024-03-02T00:28:16;5.40;99.90
5735;DHT22;2892;47.592;7.688;2024-03-02T00:33:16;5.20;99.90
5735;DHT22;2892;47.592;7.688;2024-03-02T00:35:44;5.20;99.90
5735;DHT22;2892;47.592;7.688;2024-03-02T00:38:10;5.20;99.90
5735;DHT22;2892;47.592;7.688;2024-03-02T00:40:35;5.10;99.90
5735;DHT22;2892;47.592;7.688;2024-03-02T00:43:02;5.20;99.90
5735;DHT22;2892;47.592;7.688;2024-03-02T00:45:27;5.10;99.90
5735;DHT22;2892;47.592;7.688;2024-03-02T00:47:53;5.00;99.90
5735;DHT22;2892;47.592;7.688;2024-03-02T00:50:19;5.00;99.90
5735;DHT22;2892;47.592;7.688;2024-03-02T00:52:45;5.00;99.90
5735;DHT22;2892;47.592;7.688;2024-03-02T00:55:12;5.10;99.90
5735;DHT22;2892;47.592;7.688;2024-03-02T00:57:38;5.10;99.90
5735;DHT22;2892;47.592;7.688;2024-03-02T01:00:03;5.20;99.90
5735;DHT22;2892;47.592;7.688;2024-03-02T01:02:29;5.40;99.90
5735;DHT22;2892;47.592;7.688;2024-03-02T01:04:54;5.20;99.90
5735;DHT22;2892;47.592;7.688;2024-03-02T01:07:20;5.30;99.90
5735;DHT22;2892;47.592;7.688;2024-03-02T01:09:45;5.20;99.90
5735;DHT22;2892;47.592;7.688;2024-03-02T01:12:11;5.20;99.90
5735;DHT22;2892;47.592;7.688;2024-03-02T01:14:36;5.30;99.90
5735;DHT22;2892;47.592;7.688;2024-03-02T01:17:02;5.20;99.90
5735;DHT22;2892;47.592;7.688;2024-03-02T01:19:27;5.20;99.90
5735;DHT22;2892;47.592;7.688;2024-03-02T01:21:53;5.10;99.90
5735;DHT22;2892;47.592;7.688;2024-03-02T01:24:18;5.10;99.90
5735;DHT22;2892;47.592;7.688;2024-03-02T01:26:44;5.10;99.90
5735;DHT22;2892;47.592;7.688;2024-03-02T01:29:09;5.00;99.90
5735;DHT22;2892;47.592;7.688;2024-03-02T01:31:35;5.00;99.90
5735;DHT22;2892;47.592;7.688;2024-03-02T01:34:00;5.00;99.90
5735;DHT22;2892;47.592;7.688;2024-03-02T01:36:26;5.00;99.90
5735;DHT22;2892;47.592;7.688;2024-03-02T01:38:51;5.30;99.90
5735;DHT22;2892;47.592;7.688;2024-03-02T01:41:17;5.40;99.90
5735;DHT22;2892;47.592;7.688;2024-03-02T01:43:42;5.50;99.90
5735;DHT22;2892;47.592;7.688;2024-03-02T01:46:08;5.50;99.90
5735;DHT22;2892;47.592;7.688;2024-03-02T01:48:33;5.40;99.90
5735;DHT22;2892;47.592;7.688;2024-03-02T01:50:59;5.30;99.90
5735;DHT22;2892;47.592;7.688;2024-03-02T01:53:24;5.20;99.90
5735;DHT22;2892;47.592;7.688;2024-03-02T01:55:50;5.20;99.90
5735;DHT22;2892;47.592;7.688;2024-03-02T01:58:16;5.30;99.90
5735;DHT22;2892;47.592;7.688;2024-03-02T02:00:42;5.30;99.90
5735;DHT22;2892;47.592;7.688;2024-03-02T02:03:07;5.30;99.90
5735;DHT22;2892;47.592;7.688;2024-03-02T02:05:34;5.30;99.90
5735;DHT22;2892;47.592;7.688;2024-03-02T02:08:01;5.40;99.90
5735;DHT22;2892;47.592;7.688;2024-03-02T02:10:26;5.50;99.90
5735;DHT22;2892;47.592;7.688;2024-03-02T02:12:52;5.70;99.90
5735;DHT22;2892;47.592;7.688;2024-03-02T02:15:33;5.70;99.90
5735;DHT22;2892;47.592;7.688;2024-03-02T02:17:58;5.70;99.90
5735;DHT22;2892;47.592;7.688;2024-03-02T02:20:24;5.70;99.90
5735;DHT22;2892;47.592;7.688;2024-03-02T02:23:02;5.60;99.90
5735;DHT22;2892;47.592;7.688;2024-03-02T02:25:29;5.70;99.90
5735;DHT22;2892;47.592;7.688;2024-03-02T02:27:55;5.80;99.90
5735;DHT22;2892;47.592;7.688;2024-03-02T02:30:23;5.70;99.90
5735;DHT22;2892;47.592;7.688;2024-03-02T02:32:49;5.60;99.90
5735;DHT22;2892;47.592;7.688;2024-03-02T02:35:15;5.50;99.90
5735;DHT22;2892;47.592;7.688;2024-03-02T02:37:40;5.60;99.90
5735;DHT22;2892;47.592;7.688;2024-03-02T02:40:06;5.50;99.90
5735;DHT22;2892;47.592;7.688;2024-03-02T02:42:32;5.60;99.90
5735;DHT22;2892;47.592;7.688;2024-03-02T02:44:57;5.60;99.90
5735;DHT22;2892;47.592;7.688;2024-03-02T02:47:23;5.60;99.90
5735;DHT22;2892;47.592;7.688;2024-03-02T02:49:48;5.50;99.90
5735;DHT22;2892;47.592;7.688;2024-03-02T02:52:14;5.60;99.90
5735;DHT22;2892;47.592;7.688;2024-03-02T02:54:39;5.60;99.90
5735;DHT22;2892;47.592;7.688;2024-03-02T02:57:05;5.60;99.90
5735;DHT22;2892;47.592;7.688;2024-03-02T02:59:30;5.40;99.90
5735;DHT22;2892;47.592;7.688;2024-03-02T03:01:56;5.50;99.90
5735;DHT22;2892;47.592;7.688;2024-03-02T03:04:21;5.40;99.90
5735;DHT22;2892;47.592;7.688;2024-03-02T03:06:47;5.40;99.90
5735;DHT22;2892;47.592;7.688;2024-03-02T03:09:12;5.40;99.90
5735;DHT22;2892;47.592;7.688;2024-03-02T03:11:38;5.40;99.90
5735;DHT22;2892;47.592;7.688;2024-03-02T03:14:03;5.40;99.90
5735;DHT22;2892;47.592;7.688;2024-03-02T03:16:29;5.40;99.90
5735;DHT22;2892;47.592;7.688;2024-03-02T03:18:54;5.40;99.90
5735;DHT22;2892;47.592;7.688;2024-03-02T03:21:20;5.30;99.90
5735;DHT22;2892;47.592;7.688;2024-03-02T03:23:45;5.20;99.90
5735;DHT22;2892;47.592;7.688;2024-03-02T03:26:11;5.30;99.90
5735;DHT22;2892;47.592;7.688;2024-03-02T03:28:36;5.40;99.90
5735;DHT22;2892;47.592;7.688;2024-03-02T03:31:02;5.50;99.90
5735;DHT22;2892;47.592;7.688;2024-03-02T03:33:27;5.60;99.90
5735;DHT22;2892;47.592;7.688;2024-03-02T03:35:53;5.60;99.90
5735;DHT22;2892;47.592;7.688;2024-03-02T03:38:18;5.60;99.90
5735;DHT22;2892;47.592;7.688;2024-03-02T03:40:44;5.60;99.90
5735;DHT22;2892;47.592;7.688;2024-03-02T03:43:09;5.50;99.90
5735;DHT22;2892;47.592;7.688;2024-03-02T03:45:35;5.50;99.90
5735;DHT22;2892;47.592;7.688;2024-03-02T03:48:00;5.50;99.90
5735;DHT22;2892;47.592;7.688;2024-03-02T03:50:26;5.40;99.90
5735;DHT22;2892;47.592;7.688;2024-03-02T03:52:51;5.40;99.90
5735;DHT22;2892;47.592;7.688;2024-03-02T03:55:17;5.30;99.90
5735;DHT22;2892;47.592;7.688;2024-03-02T03:57:42;5.40;99.90
5735;DHT22;2892;47.592;7.688;2024-03-02T04:00:08;5.30;99.90
5735;DHT22;2892;47.592;7.688;2024-03-02T04:02:34;5.20;99.90
5735;DHT22;2892;47.592;7.688;2024-03-02T04:04:59;4.90;99.90
5735;DHT22;2892;47.592;7.688;2024-03-02T04:07:24;4.80;99.90
5735;DHT22;2892;47.592;7.688;2024-03-02T04:09:50;4.70;99.90
5735;DHT22;2892;47.592;7.688;2024-03-02T04:12:15;4.70;99.90
5735;DHT22;2892;47.592;7.688;2024-03-02T04:14:41;4.90;99.90
5735;DHT22;2892;47.592;7.688;2024-03-02T04:17:06;4.80;99.90
5735;DHT22;2892;47.592;7.688;2024-03-02T04:19:32;5.00;99.90
5735;DHT22;2892;47.592;7.688;2024-03-02T04:21:57;4.90;99.90
5735;DHT22;2892;47.592;7.688;2024-03-02T04:24:23;4.70;99.90
5735;DHT22;2892;47.592;7.688;2024-03-02T04:26:48;4.70;99.90
5735;DHT22;2892;47.592;7.688;2024-03-02T04:29:14;4.80;99.90
5735;DHT22;2892;47.592;7.688;2024-03-02T04:31:39;4.80;99.90
5735;DHT22;2892;47.592;7.688;2024-03-02T04:34:05;4.80;99.90
5735;DHT22;2892;47.592;7.688;2024-03-02T04:36:30;4.80;99.90
5735;DHT22;2892;47.592;7.688;2024-03-02T04:38:56;4.80;99.90
5735;DHT22;2892;47.592;7.688;2024-03-02T04:41:21;4.80;99.90
5735;DHT22;2892;47.592;7.688;2024-03-02T04:43:47;5.00;99.90
5735;DHT22;2892;47.592;7.688;2024-03-02T04:46:12;5.10;99.90
5735;DHT22;2892;47.592;7.688;2024-03-02T04:48:37;5.20;99.90
5735;DHT22;2892;47.592;7.688;2024-03-02T04:51:03;5.20;99.90
5735;DHT22;2892;47.592;7.688;2024-03-02T04:53:29;5.30;99.90
5735;DHT22;2892;47.592;7.688;2024-03-02T04:55:54;5.40;99.90
5735;DHT22;2892;47.592;7.688;2024-03-02T04:58:20;5.40;99.90
5735;DHT22;2892;47.592;7.688;2024-03-02T05:00:45;5.50;99.90
5735;DHT22;2892;47.592;7.688;2024-03-02T05:03:11;5.50;99.90
5735;DHT22;2892;47.592;7.688;2024-03-02T05:05:36;5.50;99.90
5735;DHT22;2892;47.592;7.688;2024-03-02T05:08:01;5.50;99.90
5735;DHT22;2892;47.592;7.688;2024-03-02T05:10:27;5.50;99.90
5735;DHT22;2892;47.592;7.688;2024-03-02T05:12:52;5.50;99.90
5735;DHT22;2892;47.592;7.688;2024-03-02T05:15:18;5.50;99.90
5735;DHT22;2892;47.592;7.688;2024-03-02T05:17:43;5.50;99.90
5735;DHT22;2892;47.592;7.688;2024-03-02T05:20:10;5.50;99.90
5735;DHT22;2892;47.592;7.688;2024-03-02T05:22:36;5.50;99.90
5735;DHT22;2892;47.592;7.688;2024-03-02T05:25:03;5.60;99.90
5735;DHT22;2892;47.592;7.688;2024-03-02T05:27:29;5.50;99.90
5735;DHT22;2892;47.592;7.688;2024-03-02T05:29:55;5.60;99.90
5735;DHT22;2892;47.592;7.688;2024-03-02T05:32:20;5.50;99.90
5735;DHT22;2892;47.592;7.688;2024-03-02T05:34:46;5.60;99.90
5735;DHT22;2892;47.592;7.688;2024-03-02T05:37:12;5.60;99.90
5735;DHT22;2892;47.592;7.688;2024-03-02T05:39:37;5.60;99.90
5735;DHT22;2892;47.592;7.688;2024-03-02T05:42:03;5.60;99.90
5735;DHT22;2892;47.592;7.688;2024-03-02T05:44:29;5.60;99.90
5735;DHT22;2892;47.592;7.688;2024-03-02T05:46:54;5.60;99.90
5735;DHT22;2892;47.592;7.688;2024-03-02T05:49:20;5.60;99.90
5735;DHT22;2892;47.592;7.688;2024-03-02T05:51:45;5.70;99.90
5735;DHT22;2892;47.592;7.688;2024-03-02T05:54:11;5.60;99.90
5735;DHT22;2892;47.592;7.688;2024-03-02T05:56:36;5.70;99.90
5735;DHT22;2892;47.592;7.688;2024-03-02T05:59:02;5.70;99.90
5735;DHT22;2892;47.592;7.688;2024-03-02T06:01:27;5.60;99.90
5735;DHT22;2892;47.592;7.688;2024-03-02T06:03:53;5.60;99.90
5735;DHT22;2892;47.592;7.688;2024-03-02T06:06:18;5.60;99.90
5735;DHT22;2892;47.592;7.688;2024-03-02T06:08:44;5.60;99.90
5735;DHT22;2892;47.592;7.688;2024-03-02T06:11:09;5.60;99.90
5735;DHT22;2892;47.592;7.688;2024-03-02T06:13:35;5.50;99.90
5735;DHT22;2892;47.592;7.688;2024-03-02T06:16:00;5.60;99.90
5735;DHT22;2892;47.592;7.688;2024-03-02T06:18:26;5.60;99.90
5735;DHT22;2892;47.592;7.688;2024-03-02T06:20:51;5.50;99.90
5735;DHT22;2892;47.592;7.688;2024-03-02T06:23:17;5.40;99.90
5735;DHT22;2892;47.592;7.688;2024-03-02T06:25:42;5.40;99.90
5735;DHT22;2892;47.592;7.688;2024-03-02T06:28:08;5.40;99.90
5735;DHT22;2892;47.592;7.688;2024-03-02T06:30:33;5.40;99.90
5735;DHT22;2892;47.592;7.688;2024-03-02T06:32:58;5.30;99.90
5735;DHT22;2892;47.592;7.688;2024-03-02T06:35:24;5.30;99.90
5735;DHT22;2892;47.592;7.688;2024-03-02T06:37:49;5.30;99.90
5735;DHT22;2892;47.592;7.688;2024-03-02T06:40:15;5.30;99.90
5735;DHT22;2892;47.592;7.688;2024-03-02T06:42:40;5.30;99.90
5735;DHT22;2892;47.592;7.688;2024-03-02T06:45:06;5.30;99.90
5735;DHT22;2892;47.592;7.688;2024-03-02T06:47:32;5.30;99.90
5735;DHT22;2892;47.592;7.688;2024-03-02T06:49:57;5.40;99.90
5735;DHT22;2892;47.592;7.688;2024-03-02T06:52:23;5.40;99.90
5735;DHT22;2892;47.592;7.688;2024-03-02T06:54:48;5.40;99.90
5735;DHT22;2892;47.592;7.688;2024-03-02T06:57:13;5.40;99.90
5735;DHT22;2892;47.592;7.688;2024-03-02T06:59:39;5.40;99.90
5735;DHT22;2892;47.592;7.688;2024-03-02T07:02:04;5.40;99.90
5735;DHT22;2892;47.592;7.688;2024-03-02T07:04:30;5.50;99.90
5735;DHT22;2892;47.592;7.688;2024-03-02T07:06:55;5.60;99.90
5735;DHT22;2892;47.592;7.688;2024-03-02T07:09:21;5.60;99.90
5735;DHT22;2892;47.592;7.688;2024-03-02T07:11:46;5.60;99.90
5735;DHT22;2892;47.592;7.688;2024-03-02T07:14:12;5.70;99.90
5735;DHT22;2892;47.592;7.688;2024-03-02T07:16:37;5.60;99.90
5735;DHT22;2892;47.592;7.688;2024-03-02T07:19:03;5.70;99.90
5735;DHT22;2892;47.592;7.688;2024-03-02T07:21:28;5.70;99.90
5735;DHT22;2892;47.592;7.688;2024-03-02T07:23:54;5.70;99.90
5735;DHT22;2892;47.592;7.688;2024-03-02T07:26:19;5.60;99.90
5735;DHT22;2892;47.592;7.688;2024-03-02T07:28:46;5.60;99.90
5735;DHT22;2892;47.592;7.688;2024-03-02T07:31:12;5.50;99.90
5735;DHT22;2892;47.592;7.688;2024-03-02T07:33:37;5.40;99.90
5735;DHT22;2892;47.592;7.688;2024-03-02T07:36:04;5.30;99.90
5735;DHT22;2892;47.592;7.688;2024-03-02T07:38:30;5.20;99.90
5735;DHT22;2892;47.592;7.688;2024-03-02T07:40:55;5.20;99.90
5735;DHT22;2892;47.592;7.688;2024-03-02T07:43:21;5.20;99.90
5735;DHT22;2892;47.592;7.688;2024-03-02T07:45:47;5.30;99.90
5735;DHT22;2892;47.592;7.688;2024-03-02T07:48:13;5.30;99.90
5735;DHT22;2892;47.592;7.688;2024-03-02T07:50:39;5.40;99.90
5735;DHT22;2892;47.592;7.688;2024-03-02T07:53:05;5.40;99.90
5735;DHT22;2892;47.592;7.688;2024-03-02T07:55:31;5.40;99.90
5735;DHT22;2892;47.592;7.688;2024-03-02T07:57:57;5.60;99.90
5735;DHT22;2892;47.592;7.688;2024-03-02T08:00:23;5.70;99.90
5735;DHT22;2892;47.592;7.688;2024-03-02T08:02:50;5.80;99.90
5735;DHT22;2892;47.592;7.688;2024-03-02T08:05:15;5.90;99.90
5735;DHT22;2892;47.592;7.688;2024-03-02T08:07:41;6.00;99.90
5735;DHT22;2892;47.592;7.688;2024-03-02T08:10:07;6.10;99.90
5735;DHT22;2892;47.592;7.688;2024-03-02T08:12:32;6.20;99.90
5735;DHT22;2892;47.592;7.688;2024-03-02T08:14:58;6.40;99.90
5735;DHT22;2892;47.592;7.688;2024-03-02T08:17:23;6.40;99.90
5735;DHT22;2892;47.592;7.688;2024-03-02T08:19:49;6.40;99.90
5735;DHT22;2892;47.592;7.688;2024-03-02T08:22:15;6.50;99.90
5735;DHT22;2892;47.592;7.688;2024-03-02T08:24:41;6.60;99.90
5735;DHT22;2892;47.592;7.688;2024-03-02T08:27:06;6.60;99.90
5735;DHT22;2892;47.592;7.688;2024-03-02T08:29:32;6.60;99.90
5735;DHT22;2892;47.592;7.688;2024-03-02T08:31:57;6.70;99.90
5735;DHT22;2892;47.592;7.688;2024-03-02T08:34:23;6.80;99.90
5735;DHT22;2892;47.592;7.688;2024-03-02T08:36:48;7.00;99.90
5735;DHT22;2892;47.592;7.688;2024-03-02T08:39:14;7.10;99.90
5735;DHT22;2892;47.592;7.688;2024-03-02T08:41:40;7.10;99.90
5735;DHT22;2892;47.592;7.688;2024-03-02T08:44:05;7.20;99.90
5735;DHT22;2892;47.592;7.688;2024-03-02T08:46:31;7.30;99.90
5735;DHT22;2892;47.592;7.688;2024-03-02T08:48:56;7.40;99.90
5735;DHT22;2892;47.592;7.688;2024-03-02T08:51:22;7.40;99.90
5735;DHT22;2892;47.592;7.688;2024-03-02T08:53:47;7.60;99.90
5735;DHT22;2892;47.592;7.688;2024-03-02T08:56:12;7.70;99.90
5735;DHT22;2892;47.592;7.688;2024-03-02T08:58:38;8.00;99.90
5735;DHT22;2892;47.592;7.688;2024-03-02T09:01:04;8.00;99.90
5735;DHT22;2892;47.592;7.688;2024-03-02T09:03:29;8.30;99.90
5735;DHT22;2892;47.592;7.688;2024-03-02T09:05:55;8.50;99.90
5735;DHT22;2892;47.592;7.688;2024-03-02T09:08:21;8.60;99.90
5735;DHT22;2892;47.592;7.688;2024-03-02T09:10:46;8.70;99.90
5735;DHT22;2892;47.592;7.688;2024-03-02T09:13:12;9.00;99.90
5735;DHT22;2892;47.592;7.688;2024-03-02T09:15:37;9.00;99.90
5735;DHT22;2892;47.592;7.688;2024-03-02T09:18:03;9.10;99.90
5735;DHT22;2892;47.592;7.688;2024-03-02T09:20:29;9.40;99.90
5735;DHT22;2892;47.592;7.688;2024-03-02T09:22:54;9.40;99.90
5735;DHT22;2892;47.592;7.688;2024-03-02T09:25:20;9.40;99.90
5735;DHT22;2892;47.592;7.688;2024-03-02T09:27:45;9.40;99.90
5735;DHT22;2892;47.592;7.688;2024-03-02T09:30:11;9.60;99.90
5735;DHT22;2892;47.592;7.688;2024-03-02T09:32:37;9.50;99.90
5735;DHT22;2892;47.592;7.688;2024-03-02T09:35:03;9.50;99.90
5735;DHT22;2892;47.592;7.688;2024-03-02T09:37:29;9.60;99.90
5735;DHT22;2892;47.592;7.688;2024-03-02T09:39:54;9.60;99.90
5735;DHT22;2892;47.592;7.688;2024-03-02T09:42:20;9.80;99.90
5735;DHT22;2892;47.592;7.688;2024-03-02T09:44:46;9.70;99.90
5735;DHT22;2892;47.592;7.688;2024-03-02T09:47:12;9.70;99.90
5735;DHT22;2892;47.592;7.688;2024-03-02T09:49:38;9.90;99.90
5735;DHT22;2892;47.592;7.688;2024-03-02T09:52:05;10.00;99.90
5735;DHT22;2892;47.592;7.688;2024-03-02T09:54:30;9.90;99.90
5735;DHT22;2892;47.592;7.688;2024-03-02T09:56:56;10.10;99.90
5735;DHT22;2892;47.592;7.688;2024-03-02T09:59:24;10.30;99.90
5735;DHT22;2892;47.592;7.688;2024-03-02T10:01:56;10.70;99.90
5735;DHT22;2892;47.592;7.688;2024-03-02T10:04:23;10.80;99.90
5735;DHT22;2892;47.592;7.688;2024-03-02T10:06:49;11.30;99.90
5735;DHT22;2892;47.592;7.688;2024-03-02T10:09:27;12.30;99.90
5735;DHT22;2892;47.592;7.688;2024-03-02T10:11:52;12.10;99.90
5735;DHT22;2892;47.592;7.688;2024-03-02T10:14:18;12.10;99.90
5735;DHT22;2892;47.592;7.688;2024-03-02T10:16:44;12.40;99.90
5735;DHT22;2892;47.592;7.688;2024-03-02T10:19:19;12.20;99.90
5735;DHT22;2892;47.592;7.688;2024-03-02T10:21:46;11.70;99.90
5735;DHT22;2892;47.592;7.688;2024-03-02T10:24:12;11.60;99.90
5735;DHT22;2892;47.592;7.688;2024-03-02T10:26:38;12.10;99.90
5735;DHT22;2892;47.592;7.688;2024-03-02T10:29:03;12.80;99.90
5735;DHT22;2892;47.592;7.688;2024-03-02T10:31:29;12.70;99.90
5735;DHT22;2892;47.592;7.688;2024-03-02T10:33:55;13.40;99.90
5735;DHT22;2892;47.592;7.688;2024-03-02T10:36:21;13.20;99.90
5735;DHT22;2892;47.592;7.688;2024-03-02T10:38:47;12.90;99.90
5735;DHT22;2892;47.592;7.688;2024-03-02T10:41:16;13.20;99.90
5735;DHT22;2892;47.592;7.688;2024-03-02T10:43:42;13.50;99.90
5735;DHT22;2892;47.592;7.688;2024-03-02T10:46:08;13.10;99.90
5735;DHT22;2892;47.592;7.688;2024-03-02T10:48:35;13.10;99.90
5735;DHT22;2892;47.592;7.688;2024-03-02T10:51:02;13.00;99.90
5735;DHT22;2892;47.592;7.688;2024-03-02T10:53:27;13.00;99.90
5735;DHT22;2892;47.592;7.688;2024-03-02T10:55:57;13.20;99.90
5735;DHT22;2892;47.592;7.688;2024-03-02T10:58:25;12.90;99.90
5735;DHT22;2892;47.592;7.688;2024-03-02T11:00:55;13.40;99.90
5735;DHT22;2892;47.592;7.688;2024-03-02T11:03:21;13.20;99.90
5735;DHT22;2892;47.592;7.688;2024-03-02T11:05:47;13.20;99.90
5735;DHT22;2892;47.592;7.688;2024-03-02T11:08:14;13.50;99.90
5735;DHT22;2892;47.592;7.688;2024-03-02T11:13:12;13.10;99.90
5735;DHT22;2892;47.592;7.688;2024-03-02T11:15:40;13.20;99.90
5735;DHT22;2892;47.592;7.688;2024-03-02T11:18:06;13.20;99.90
5735;DHT22;2892;47.592;7.688;2024-03-02T11:20:32;13.20;99.90
5735;DHT22;2892;47.592;7.688;2024-03-02T11:23:05;13.60;99.90
5735;DHT22;2892;47.592;7.688;2024-03-02T11:25:31;14.20;99.90
5735;DHT22;2892;47.592;7.688;2024-03-02T11:28:06;14.30;99.90
5735;DHT22;2892;47.592;7.688;2024-03-02T11:35:27;14.70;99.90
5735;DHT22;2892;47.592;7.688;2024-03-02T11:37:53;15.00;99.90
5735;DHT22;2892;47.592;7.688;2024-03-02T11:40:22;15.20;99.90
5735;DHT22;2892;47.592;7.688;2024-03-02T11:42:47;15.60;99.90
5735;DHT22;2892;47.592;7.688;2024-03-02T11:45:16;15.50;99.90
5735;DHT22;2892;47.592;7.688;2024-03-02T11:47:46;15.60;99.90
5735;DHT22;2892;47.592;7.688;2024-03-02T11:50:15;14.60;99.90
5735;DHT22;2892;47.592;7.688;2024-03-02T11:52:41;15.20;99.90
5735;DHT22;2892;47.592;7.688;2024-03-02T11:55:08;14.90;99.90
5735;DHT22;2892;47.592;7.688;2024-03-02T11:57:35;14.50;99.90
5735;DHT22;2892;47.592;7.688;2024-03-02T12:00:00;14.60;99.90
5735;DHT22;2892;47.592;7.688;2024-03-02T12:02:26;14.00;99.90
5735;DHT22;2892;47.592;7.688;2024-03-02T12:04:52;13.80;99.90
5735;DHT22;2892;47.592;7.688;2024-03-02T12:07:19;13.80;99.90
5735;DHT22;2892;47.592;7.688;2024-03-02T12:09:45;13.60;99.90
5735;DHT22;2892;47.592;7.688;2024-03-02T12:12:11;13.40;99.90
5735;DHT22;2892;47.592;7.688;2024-03-02T12:14:37;13.80;99.90
5735;DHT22;2892;47.592;7.688;2024-03-02T12:17:04;13.90;98.40
5735;DHT22;2892;47.592;7.688;2024-03-02T12:19:31;13.80;99.90
5735;DHT22;2892;47.592;7.688;2024-03-02T12:21:57;13.60;99.90
5735;DHT22;2892;47.592;7.688;2024-03-02T12:24:24;13.40;99.90
5735;DHT22;2892;47.592;7.688;2024-03-02T12:26:53;13.50;99.90
5735;DHT22;2892;47.592;7.688;2024-03-02T12:29:19;13.30;99.90
5735;DHT22;2892;47.592;7.688;2024-03-02T12:31:45;13.30;99.90
5735;DHT22;2892;47.592;7.688;2024-03-02T12:34:13;13.40;99.90
5735;DHT22;2892;47.592;7.688;2024-03-02T12:36:39;13.50;99.90
5735;DHT22;2892;47.592;7.688;2024-03-02T12:39:05;13.40;99.90
5735;DHT22;2892;47.592;7.688;2024-03-02T12:41:30;13.50;99.90
5735;DHT22;2892;47.592;7.688;2024-03-02T12:43:56;13.20;99.90
5735;DHT22;2892;47.592;7.688;2024-03-02T12:46:21;13.00;99.90
5735;DHT22;2892;47.592;7.688;2024-03-02T12:48:47;12.70;99.90
5735;DHT22;2892;47.592;7.688;2024-03-02T12:51:13;12.90;99.90
5735;DHT22;2892;47.592;7.688;2024-03-02T12:53:38;12.90;99.90
5735;DHT22;2892;47.592;7.688;2024-03-02T12:56:04;12.90;99.90
5735;DHT22;2892;47.592;7.688;2024-03-02T12:58:30;13.00;99.90
5735;DHT22;2892;47.592;7.688;2024-03-02T13:01:11;13.10;99.90
5735;DHT22;2892;47.592;7.688;2024-03-02T13:03:38;12.90;99.90
5735;DHT22;2892;47.592;7.688;2024-03-02T13:06:05;13.10;99.90
5735;DHT22;2892;47.592;7.688;2024-03-02T13:08:30;13.10;99.90
5735;DHT22;2892;47.592;7.688;2024-03-02T13:10:56;13.30;99.90
5735;DHT22;2892;47.592;7.688;2024-03-02T13:13:22;13.30;99.90
5735;DHT22;2892;47.592;7.688;2024-03-02T13:15:47;13.50;99.90
5735;DHT22;2892;47.592;7.688;2024-03-02T13:18:12;13.50;99.90
5735;DHT22;2892;47.592;7.688;2024-03-02T13:20:38;13.40;99.90
5735;DHT22;2892;47.592;7.688;2024-03-02T13:23:03;13.20;99.90
5735;DHT22;2892;47.592;7.688;2024-03-02T13:25:29;13.00;99.90
5735;DHT22;2892;47.592;7.688;2024-03-02T13:27:54;13.00;99.90
5735;DHT22;2892;47.592;7.688;2024-03-02T13:30:20;13.00;99.90
5735;DHT22;2892;47.592;7.688;2024-03-02T13:32:45;12.90;99.90
5735;DHT22;2892;47.592;7.688;2024-03-02T13:35:11;13.10;99.90
5735;DHT22;2892;47.592;7.688;2024-03-02T13:37:36;13.10;99.90
5735;DHT22;2892;47.592;7.688;2024-03-02T13:40:02;13.00;99.90
5735;DHT22;2892;47.592;7.688;2024-03-02T13:42:28;13.10;99.90
5735;DHT22;2892;47.592;7.688;2024-03-02T13:44:53;13.10;99.90
5735;DHT22;2892;47.592;7.688;2024-03-02T13:47:19;13.00;99.90
5735;DHT22;2892;47.592;7.688;2024-03-02T13:49:44;12.90;99.90
5735;DHT22;2892;47.592;7.688;2024-03-02T13:52:10;12.90;99.90
5735;DHT22;2892;47.592;7.688;2024-03-02T13:54:37;13.00;99.90
5735;DHT22;2892;47.592;7.688;2024-03-02T13:57:03;12.80;99.90
5735;DHT22;2892;47.592;7.688;2024-03-02T13:59:28;12.90;99.90
5735;DHT22;2892;47.592;7.688;2024-03-02T14:01:54;12.90;99.90
5735;DHT22;2892;47.592;7.688;2024-03-02T14:04:19;12.70;99.90
5735;DHT22;2892;47.592;7.688;2024-03-02T14:06:45;12.80;99.90
5735;DHT22;2892;47.592;7.688;2024-03-02T14:09:10;12.70;99.90
5735;DHT22;2892;47.592;7.688;2024-03-02T14:11:36;12.70;99.90
5735;DHT22;2892;47.592;7.688;2024-03-02T14:14:01;12.80;99.90
5735;DHT22;2892;47.592;7.688;2024-03-02T14:16:27;12.80;99.90
5735;DHT22;2892;47.592;7.688;2024-03-02T14:18:53;12.80;99.90
5735;DHT22;2892;47.592;7.688;2024-03-02T14:21:18;12.70;99.90
5735;DHT22;2892;47.592;7.688;2024-03-02T14:23:44;12.70;99.90
5735;DHT22;2892;47.592;7.688;2024-03-02T14:26:09;12.70;99.90
5735;DHT22;2892;47.592;7.688;2024-03-02T14:28:35;12.80;99.90
5735;DHT22;2892;47.592;7.688;2024-03-02T14:31:00;12.70;99.90
5735;DHT22;2892;47.592;7.688;2024-03-02T14:33:26;12.70;99.90
5735;DHT22;2892;47.592;7.688;2024-03-02T14:35:51;12.70;99.90
5735;DHT22;2892;47.592;7.688;2024-03-02T14:38:17;12.70;99.90
5735;DHT22;2892;47.592;7.688;2024-03-02T14:40:43;12.60;99.90
5735;DHT22;2892;47.592;7.688;2024-03-02T14:43:08;12.60;99.90
5735;DHT22;2892;47.592;7.688;2024-03-02T14:45:34;12.60;99.90
5735;DHT22;2892;47.592;7.688;2024-03-02T14:47:59;12.60;99.90
5735;DHT22;2892;47.592;7.688;2024-03-02T14:50:26;12.60;99.90
5735;DHT22;2892;47.592;7.688;2024-03-02T14:52:51;12.70;99.90
5735;DHT22;2892;47.592;7.688;2024-03-02T14:55:17;12.70;99.90
5735;DHT22;2892;47.592;7.688;2024-03-02T14:57:42;12.60;99.90
5735;DHT22;2892;47.592;7.688;2024-03-02T15:00:08;12.70;99.90
5735;DHT22;2892;47.592;7.688;2024-03-02T15:02:34;12.90;99.90
5735;DHT22;2892;47.592;7.688;2024-03-02T15:05:00;12.90;99.90
5735;DHT22;2892;47.592;7.688;2024-03-02T15:07:25;13.20;99.90
5735;DHT22;2892;47.592;7.688;2024-03-02T15:09:51;13.10;99.90
5735;DHT22;2892;47.592;7.688;2024-03-02T15:12:16;13.20;99.90
5735;DHT22;2892;47.592;7.688;2024-03-02T15:14:42;13.50;99.90
5735;DHT22;2892;47.592;7.688;2024-03-02T15:17:07;13.60;99.90
5735;DHT22;2892;47.592;7.688;2024-03-02T15:19:33;13.80;99.90
5735;DHT22;2892;47.592;7.688;2024-03-02T15:21:58;13.90;99.90
5735;DHT22;2892;47.592;7.688;2024-03-02T15:24:24;13.80;99.90
5735;DHT22;2892;47.592;7.688;2024-03-02T15:26:49;13.50;99.90
5735;DHT22;2892;47.592;7.688;2024-03-02T15:29:15;13.50;99.90
5735;DHT22;2892;47.592;7.688;2024-03-02T15:31:40;13.30;99.90
5735;DHT22;2892;47.592;7.688;2024-03-02T15:34:06;13.10;99.90
5735;DHT22;2892;47.592;7.688;2024-03-02T15:36:31;12.90;99.90
5735;DHT22;2892;47.592;7.688;2024-03-02T15:38:57;12.80;99.90
5735;DHT22;2892;47.592;7.688;2024-03-02T15:43:48;12.70;99.90
5735;DHT22;2892;47.592;7.688;2024-03-02T15:46:13;12.70;99.90
5735;DHT22;2892;47.592;7.688;2024-03-02T15:48:39;12.60;99.90
5735;DHT22;2892;47.592;7.688;2024-03-02T15:51:04;12.50;99.90
5735;DHT22;2892;47.592;7.688;2024-03-02T15:53:30;12.40;99.90
5735;DHT22;2892;47.592;7.688;2024-03-02T15:55:55;12.40;99.90
5735;DHT22;2892;47.592;7.688;2024-03-02T15:58:21;12.40;99.90
5735;DHT22;2892;47.592;7.688;2024-03-02T16:00:47;12.40;99.90
5735;DHT22;2892;47.592;7.688;2024-03-02T16:03:12;12.40;99.90
5735;DHT22;2892;47.592;7.688;2024-03-02T16:05:38;12.40;99.90
5735;DHT22;2892;47.592;7.688;2024-03-02T16:08:03;12.40;99.90
5735;DHT22;2892;47.592;7.688;2024-03-02T16:10:29;12.40;99.90
5735;DHT22;2892;47.592;7.688;2024-03-02T16:12:54;12.30;99.90
5735;DHT22;2892;47.592;7.688;2024-03-02T16:15:20;12.30;99.90
5735;DHT22;2892;47.592;7.688;2024-03-02T16:17:45;12.20;99.90